sensor_id;sensor_type;location;lat;lon;timestamp;P1;durP1;ratioP1;P2;durP2;ratioP2
11024;SDS011;22890;51.820;8.682;2022-08-05T00:02:20;3.20;;;2.60;;
11024;SDS011;22890;51.820;8.682;2022-08-05T00:04:47;2.33;;;2.10;;
11024;SDS011;22890;51.820;8.682;2022-08-05T00:07:21;2.93;;;1.93;;
11024;SDS011;22890;51.820;8.682;2022-08-05T00:10:08;2.57;;;2.30;;
11024;SDS011;22890;51.820;8.682;2022-08-05T00:12:35;4.83;;;2.40;;
11024;SDS011;22890;51.820;8.682;2022-08-05T00:15:22;3.77;;;1.93;;
11024;SDS011;22890;51.820;8.682;2022-08-05T00:18:09;2.57;;;2.20;;
11024;SDS011;22890;51.820;8.682;2022-08-05T00:20:47;3.80;;;2.60;;
11024;SDS011;22890;51.820;8.682;2022-08-05T00:23:15;2.77;;;2.03;;
11024;SDS011;22890;51.820;8.682;2022-08-05T00:25:41;6.00;;;2.30;;
11024;SDS011;22890;51.820;8.682;2022-08-05T00:28:11;4.40;;;2.40;;
11024;SDS011;22890;51.820;8.682;2022-08-05T00:30:38;4.10;;;2.13;;
11024;SDS011;22890;51.820;8.682;2022-08-05T00:33:09;5.20;;;2.10;;
11024;SDS011;22890;51.820;8.682;2022-08-05T00:35:56;3.10;;;1.87;;
11024;SDS011;22890;51.820;8.682;2022-08-05T00:38:43;1.80;;;1.70;;
11024;SDS011;22890;51.820;8.682;2022-08-05T00:41:09;5.40;;;2.13;;
11024;SDS011;22890;51.820;8.682;2022-08-05T00:43:37;5.23;;;1.70;;
11024;SDS011;22890;51.820;8.682;2022-08-05T00:46:12;4.93;;;1.67;;
11024;SDS011;22890;51.820;8.682;2022-08-05T00:48:39;3.03;;;2.23;;
11024;SDS011;22890;51.820;8.682;2022-08-05T00:51:16;3.50;;;1.80;;
11024;SDS011;22890;51.820;8.682;2022-08-05T00:54:04;4.30;;;1.53;;
11024;SDS011;22890;51.820;8.682;2022-08-05T00:56:31;3.47;;;2.10;;
11024;SDS011;22890;51.820;8.682;2022-08-05T00:58:58;5.57;;;2.10;;
11024;SDS011;22890;51.820;8.682;2022-08-05T01:01:25;5.63;;;2.17;;
11024;SDS011;22890;51.820;8.682;2022-08-05T01:04:12;3.13;;;1.70;;
11024;SDS011;22890;51.820;8.682;2022-08-05T01:06:41;3.50;;;1.80;;
11024;SDS011;22890;51.820;8.682;2022-08-05T01:09:14;3.60;;;2.23;;
11024;SDS011;22890;51.820;8.682;2022-08-05T01:11:45;3.03;;;1.87;;
11024;SDS011;22890;51.820;8.682;2022-08-05T01:14:18;6.60;;;2.30;;
11024;SDS011;22890;51.820;8.682;2022-08-05T01:22:38;1.87;;;1.50;;
11024;SDS011;22890;51.820;8.682;2022-08-05T01:30:56;5.20;;;2.00;;
11024;SDS011;22890;51.820;8.682;2022-08-05T01:33:25;1.77;;;1.67;;
11024;SDS011;22890;51.820;8.682;2022-08-05T01:36:02;7.27;;;2.73;;
11024;SDS011;22890;51.820;8.682;2022-08-05T01:38:41;4.47;;;2.10;;
11024;SDS011;22890;51.820;8.682;2022-08-05T01:41:13;3.07;;;1.73;;
11024;SDS011;22890;51.820;8.682;2022-08-05T01:43:47;6.77;;;2.53;;
11024;SDS011;22890;51.820;8.682;2022-08-05T01:46:16;5.13;;;2.40;;
11024;SDS011;22890;51.820;8.682;2022-08-05T01:49:05;5.47;;;2.60;;
11024;SDS011;22890;51.820;8.682;2022-08-05T01:51:49;4.00;;;2.97;;
11024;SDS011;22890;51.820;8.682;2022-08-05T01:54:23;6.50;;;2.47;;
11024;SDS011;22890;51.820;8.682;2022-08-05T01:56:55;3.73;;;2.90;;
11024;SDS011;22890;51.820;8.682;2022-08-05T01:59:43;4.40;;;2.73;;
11024;SDS011;22890;51.820;8.682;2022-08-05T02:02:13;4.00;;;2.60;;
11024;SDS011;22890;51.820;8.682;2022-08-05T02:04:42;4.73;;;2.80;;
11024;SDS011;22890;51.820;8.682;2022-08-05T02:07:11;4.83;;;2.13;;
11024;SDS011;22890;51.820;8.682;2022-08-05T02:09:47;2.63;;;2.43;;
11024;SDS011;22890;51.820;8.682;2022-08-05T02:15:08;3.50;;;2.47;;
11024;SDS011;22890;51.820;8.682;2022-08-05T02:17:47;2.90;;;2.43;;
11024;SDS011;22890;51.820;8.682;2022-08-05T02:20:46;4.43;;;2.53;;
11024;SDS011;22890;51.820;8.682;2022-08-05T02:23:14;3.03;;;2.43;;
11024;SDS011;22890;51.820;8.682;2022-08-05T02:25:44;3.20;;;2.30;;
11024;SDS011;22890;51.820;8.682;2022-08-05T02:28:15;3.40;;;2.30;;
11024;SDS011;22890;51.820;8.682;2022-08-05T02:30:57;3.87;;;2.40;;
11024;SDS011;22890;51.820;8.682;2022-08-05T02:33:25;2.87;;;2.37;;
11024;SDS011;22890;51.820;8.682;2022-08-05T02:36:04;3.87;;;1.97;;
11024;SDS011;22890;51.820;8.682;2022-08-05T02:38:38;6.40;;;2.53;;
11024;SDS011;22890;51.820;8.682;2022-08-05T02:41:08;3.67;;;1.90;;
11024;SDS011;22890;51.820;8.682;2022-08-05T02:43:43;3.67;;;2.67;;
11024;SDS011;22890;51.820;8.682;2022-08-05T02:46:32;3.23;;;2.03;;
11024;SDS011;22890;51.820;8.682;2022-08-05T02:49:00;3.23;;;1.67;;
11024;SDS011;22890;51.820;8.682;2022-08-05T02:51:27;3.03;;;2.10;;
11024;SDS011;22890;51.820;8.682;2022-08-05T02:54:15;2.07;;;1.80;;
11024;SDS011;22890;51.820;8.682;2022-08-05T02:57:02;3.73;;;1.93;;
11024;SDS011;22890;51.820;8.682;2022-08-05T02:59:53;4.30;;;2.30;;
11024;SDS011;22890;51.820;8.682;2022-08-05T03:02:22;2.57;;;2.10;;
11024;SDS011;22890;51.820;8.682;2022-08-05T03:04:53;2.80;;;1.93;;
11024;SDS011;22890;51.820;8.682;2022-08-05T03:07:22;2.00;;;1.70;;
11024;SDS011;22890;51.820;8.682;2022-08-05T03:10:10;2.27;;;2.07;;
11024;SDS011;22890;51.820;8.682;2022-08-05T03:12:47;1.97;;;1.60;;
11024;SDS011;22890;51.820;8.682;2022-08-05T03:15:17;2.27;;;2.07;;
11024;SDS011;22890;51.820;8.682;2022-08-05T03:17:45;2.50;;;1.80;;
11024;SDS011;22890;51.820;8.682;2022-08-05T03:20:11;2.60;;;2.40;;
11024;SDS011;22890;51.820;8.682;2022-08-05T03:22:38;3.63;;;2.70;;
11024;SDS011;22890;51.820;8.682;2022-08-05T03:25:11;4.40;;;2.63;;
11024;SDS011;22890;51.820;8.682;2022-08-05T03:27:59;3.53;;;2.60;;
11024;SDS011;22890;51.820;8.682;2022-08-05T03:30:27;5.33;;;2.53;;
11024;SDS011;22890;51.820;8.682;2022-08-05T03:32:59;3.37;;;2.17;;
11024;SDS011;22890;51.820;8.682;2022-08-05T03:35:28;9.03;;;3.10;;
11024;SDS011;22890;51.820;8.682;2022-08-05T03:37:59;3.90;;;2.20;;
11024;SDS011;22890;51.820;8.682;2022-08-05T03:40:26;3.07;;;2.37;;
11024;SDS011;22890;51.820;8.682;2022-08-05T03:42:57;7.10;;;2.80;;
11024;SDS011;22890;51.820;8.682;2022-08-05T03:45:45;4.70;;;2.60;;
11024;SDS011;22890;51.820;8.682;2022-08-05T03:48:24;5.20;;;2.93;;
11024;SDS011;22890;51.820;8.682;2022-08-05T03:53:54;4.73;;;2.67;;
11024;SDS011;22890;51.820;8.682;2022-08-05T03:56:45;5.10;;;2.87;;
11024;SDS011;22890;51.820;8.682;2022-08-05T03:59:16;4.80;;;2.60;;
11024;SDS011;22890;51.820;8.682;2022-08-05T04:01:50;4.47;;;2.40;;
11024;SDS011;22890;51.820;8.682;2022-08-05T04:04:24;5.83;;;2.97;;
11024;SDS011;22890;51.820;8.682;2022-08-05T04:06:52;4.03;;;2.80;;
11024;SDS011;22890;51.820;8.682;2022-08-05T04:09:21;8.30;;;2.57;;
11024;SDS011;22890;51.820;8.682;2022-08-05T04:11:52;7.33;;;2.37;;
11024;SDS011;22890;51.820;8.682;2022-08-05T04:14:22;4.63;;;2.47;;
11024;SDS011;22890;51.820;8.682;2022-08-05T04:16:56;11.03;;;3.10;;
11024;SDS011;22890;51.820;8.682;2022-08-05T04:19:23;7.07;;;2.50;;
11024;SDS011;22890;51.820;8.682;2022-08-05T04:21:50;3.53;;;2.17;;
11024;SDS011;22890;51.820;8.682;2022-08-05T04:24:36;4.70;;;2.40;;
11024;SDS011;22890;51.820;8.682;2022-08-05T04:27:10;4.03;;;2.37;;
11024;SDS011;22890;51.820;8.682;2022-08-05T04:29:40;4.73;;;2.40;;
11024;SDS011;22890;51.820;8.682;2022-08-05T04:32:07;3.47;;;2.40;;
11024;SDS011;22890;51.820;8.682;2022-08-05T04:34:34;8.33;;;2.73;;
11024;SDS011;22890;51.820;8.682;2022-08-05T04:37:08;4.10;;;2.50;;
11024;SDS011;22890;51.820;8.682;2022-08-05T04:39:35;4.97;;;2.20;;
11024;SDS011;22890;51.820;8.682;2022-08-05T04:42:04;4.83;;;2.63;;
11024;SDS011;22890;51.820;8.682;2022-08-05T04:44:31;3.93;;;3.17;;
11024;SDS011;22890;51.820;8.682;2022-08-05T04:46:58;8.03;;;4.70;;
11024;SDS011;22890;51.820;8.682;2022-08-05T04:49:34;16.80;;;6.57;;
11024;SDS011;22890;51.820;8.682;2022-08-05T04:52:20;11.93;;;6.07;;
11024;SDS011;22890;51.820;8.682;2022-08-05T04:54:47;13.67;;;6.40;;
11024;SDS011;22890;51.820;8.682;2022-08-05T04:57:14;7.53;;;4.80;;
11024;SDS011;22890;51.820;8.682;2022-08-05T04:59:41;11.97;;;5.43;;
11024;SDS011;22890;51.820;8.682;2022-08-05T05:02:13;14.63;;;5.23;;
11024;SDS011;22890;51.820;8.682;2022-08-05T05:04:59;10.97;;;5.57;;
11024;SDS011;22890;51.820;8.682;2022-08-05T05:07:28;13.43;;;6.53;;
11024;SDS011;22890;51.820;8.682;2022-08-05T05:09:58;13.97;;;6.90;;
11024;SDS011;22890;51.820;8.682;2022-08-05T05:12:27;17.77;;;6.70;;
11024;SDS011;22890;51.820;8.682;2022-08-05T05:14:54;13.40;;;7.27;;
11024;SDS011;22890;51.820;8.682;2022-08-05T05:17:20;11.30;;;7.03;;
11024;SDS011;22890;51.820;8.682;2022-08-05T05:20:07;11.87;;;6.77;;
11024;SDS011;22890;51.820;8.682;2022-08-05T05:22:35;14.03;;;7.67;;
11024;SDS011;22890;51.820;8.682;2022-08-05T05:25:09;8.80;;;5.97;;
11024;SDS011;22890;51.820;8.682;2022-08-05T05:27:42;13.37;;;6.60;;
11024;SDS011;22890;51.820;8.682;2022-08-05T05:30:19;10.63;;;6.30;;
11024;SDS011;22890;51.820;8.682;2022-08-05T05:32:56;14.57;;;7.40;;
11024;SDS011;22890;51.820;8.682;2022-08-05T05:35:29;12.67;;;7.60;;
11024;SDS011;22890;51.820;8.682;2022-08-05T05:38:03;17.30;;;8.27;;
11024;SDS011;22890;51.820;8.682;2022-08-05T05:40:37;10.13;;;7.50;;
11024;SDS011;22890;51.820;8.682;2022-08-05T05:43:08;12.50;;;7.50;;
11024;SDS011;22890;51.820;8.682;2022-08-05T05:45:35;12.73;;;8.30;;
11024;SDS011;22890;51.820;8.682;2022-08-05T05:48:13;8.03;;;6.90;;
11024;SDS011;22890;51.820;8.682;2022-08-05T05:50:41;10.67;;;6.90;;
11024;SDS011;22890;51.820;8.682;2022-08-05T05:53:10;14.17;;;7.90;;
11024;SDS011;22890;51.820;8.682;2022-08-05T05:55:48;14.37;;;8.03;;
11024;SDS011;22890;51.820;8.682;2022-08-05T05:58:25;12.23;;;8.47;;
11024;SDS011;22890;51.820;8.682;2022-08-05T06:00:57;15.10;;;8.77;;
11024;SDS011;22890;51.820;8.682;2022-08-05T06:03:37;17.07;;;8.90;;
11024;SDS011;22890;51.820;8.682;2022-08-05T06:06:24;11.60;;;7.83;;
11024;SDS011;22890;51.820;8.682;2022-08-05T06:08:56;15.20;;;8.43;;
11024;SDS011;22890;51.820;8.682;2022-08-05T06:11:23;9.83;;;6.60;;
11024;SDS011;22890;51.820;8.682;2022-08-05T06:13:51;12.07;;;7.03;;
11024;SDS011;22890;51.820;8.682;2022-08-05T06:16:20;10.90;;;7.33;;
11024;SDS011;22890;51.820;8.682;2022-08-05T06:18:56;9.50;;;6.87;;
11024;SDS011;22890;51.820;8.682;2022-08-05T06:21:30;10.73;;;7.00;;
11024;SDS011;22890;51.820;8.682;2022-08-05T06:24:03;9.17;;;6.80;;
11024;SDS011;22890;51.820;8.682;2022-08-05T06:26:38;8.17;;;6.27;;
11024;SDS011;22890;51.820;8.682;2022-08-05T06:29:17;8.33;;;6.63;;
11024;SDS011;22890;51.820;8.682;2022-08-05T06:32:05;10.63;;;7.57;;
11024;SDS011;22890;51.820;8.682;2022-08-05T06:34:50;10.90;;;8.37;;
11024;SDS011;22890;51.820;8.682;2022-08-05T06:37:21;11.10;;;9.17;;
11024;SDS011;22890;51.820;8.682;2022-08-05T06:40:07;12.73;;;9.90;;
11024;SDS011;22890;51.820;8.682;2022-08-05T06:42:35;13.80;;;10.87;;
11024;SDS011;22890;51.820;8.682;2022-08-05T06:45:05;16.23;;;10.80;;
11024;SDS011;22890;51.820;8.682;2022-08-05T06:47:34;18.50;;;11.43;;
11024;SDS011;22890;51.820;8.682;2022-08-05T06:50:21;19.73;;;12.37;;
11024;SDS011;22890;51.820;8.682;2022-08-05T06:52:48;17.10;;;11.27;;
11024;SDS011;22890;51.820;8.682;2022-08-05T06:55:28;16.97;;;11.77;;
11024;SDS011;22890;51.820;8.682;2022-08-05T06:58:01;17.13;;;12.27;;
11024;SDS011;22890;51.820;8.682;2022-08-05T07:00:48;22.80;;;12.97;;
11024;SDS011;22890;51.820;8.682;2022-08-05T07:03:15;19.73;;;12.47;;
11024;SDS011;22890;51.820;8.682;2022-08-05T07:05:42;17.23;;;11.77;;
11024;SDS011;22890;51.820;8.682;2022-08-05T07:08:11;19.30;;;11.80;;
11024;SDS011;22890;51.820;8.682;2022-08-05T07:10:38;18.23;;;11.47;;
11024;SDS011;22890;51.820;8.682;2022-08-05T07:13:22;17.33;;;12.50;;
11024;SDS011;22890;51.820;8.682;2022-08-05T07:16:24;17.17;;;12.40;;
11024;SDS011;22890;51.820;8.682;2022-08-05T07:19:30;18.97;;;12.70;;
11024;SDS011;22890;51.820;8.682;2022-08-05T07:22:16;15.60;;;11.73;;
11024;SDS011;22890;51.820;8.682;2022-08-05T07:24:54;22.10;;;12.87;;
11024;SDS011;22890;51.820;8.682;2022-08-05T07:27:21;23.77;;;14.10;;
11024;SDS011;22890;51.820;8.682;2022-08-05T07:29:53;17.73;;;12.53;;
11024;SDS011;22890;51.820;8.682;2022-08-05T07:32:42;16.63;;;12.13;;
11024;SDS011;22890;51.820;8.682;2022-08-05T07:35:16;19.03;;;13.00;;
11024;SDS011;22890;51.820;8.682;2022-08-05T07:38:02;16.40;;;11.23;;
11024;SDS011;22890;51.820;8.682;2022-08-05T07:40:29;16.43;;;11.43;;
11024;SDS011;22890;51.820;8.682;2022-08-05T07:42:58;16.37;;;12.17;;
11024;SDS011;22890;51.820;8.682;2022-08-05T07:45:40;16.80;;;12.13;;
11024;SDS011;22890;51.820;8.682;2022-08-05T07:48:23;24.70;;;11.23;;
11024;SDS011;22890;51.820;8.682;2022-08-05T07:51:09;13.23;;;11.27;;
11024;SDS011;22890;51.820;8.682;2022-08-05T07:53:56;17.03;;;11.93;;
11024;SDS011;22890;51.820;8.682;2022-08-05T07:56:23;18.17;;;11.27;;
11024;SDS011;22890;51.820;8.682;2022-08-05T07:59:09;19.67;;;12.70;;
11024;SDS011;22890;51.820;8.682;2022-08-05T08:01:39;17.00;;;11.77;;
11024;SDS011;22890;51.820;8.682;2022-08-05T08:04:17;17.10;;;11.60;;
11024;SDS011;22890;51.820;8.682;2022-08-05T08:07:03;14.57;;;11.43;;
11024;SDS011;22890;51.820;8.682;2022-08-05T08:09:32;16.30;;;11.40;;
11024;SDS011;22890;51.820;8.682;2022-08-05T08:11:59;13.40;;;10.40;;
11024;SDS011;22890;51.820;8.682;2022-08-05T08:14:36;14.33;;;10.73;;
11024;SDS011;22890;51.820;8.682;2022-08-05T08:17:06;17.13;;;11.53;;
11024;SDS011;22890;51.820;8.682;2022-08-05T08:19:41;15.63;;;11.03;;
11024;SDS011;22890;51.820;8.682;2022-08-05T08:22:28;14.40;;;10.03;;
11024;SDS011;22890;51.820;8.682;2022-08-05T08:24:57;12.43;;;9.97;;
11024;SDS011;22890;51.820;8.682;2022-08-05T08:27:28;12.90;;;9.53;;
11024;SDS011;22890;51.820;8.682;2022-08-05T08:30:10;14.43;;;9.63;;
11024;SDS011;22890;51.820;8.682;2022-08-05T08:32:57;14.50;;;9.67;;
11024;SDS011;22890;51.820;8.682;2022-08-05T08:35:33;12.43;;;9.13;;
11024;SDS011;22890;51.820;8.682;2022-08-05T08:38:19;14.70;;;9.67;;
11024;SDS011;22890;51.820;8.682;2022-08-05T08:41:03;10.03;;;8.23;;
11024;SDS011;22890;51.820;8.682;2022-08-05T08:43:34;10.27;;;8.33;;
11024;SDS011;22890;51.820;8.682;2022-08-05T08:46:22;15.10;;;8.20;;
11024;SDS011;22890;51.820;8.682;2022-08-05T08:48:52;11.10;;;8.40;;
11024;SDS011;22890;51.820;8.682;2022-08-05T08:51:41;11.93;;;8.23;;
11024;SDS011;22890;51.820;8.682;2022-08-05T08:54:32;12.60;;;8.13;;
11024;SDS011;22890;51.820;8.682;2022-08-05T08:57:02;10.27;;;7.87;;
11024;SDS011;22890;51.820;8.682;2022-08-05T08:59:38;10.73;;;7.77;;
11024;SDS011;22890;51.820;8.682;2022-08-05T09:02:12;12.33;;;8.43;;
11024;SDS011;22890;51.820;8.682;2022-08-05T09:04:41;10.60;;;7.63;;
11024;SDS011;22890;51.820;8.682;2022-08-05T09:07:30;10.67;;;7.00;;
11024;SDS011;22890;51.820;8.682;2022-08-05T09:10:17;11.50;;;7.97;;
11024;SDS011;22890;51.820;8.682;2022-08-05T09:12:45;10.23;;;7.70;;
11024;SDS011;22890;51.820;8.682;2022-08-05T09:15:18;10.07;;;7.17;;
11024;SDS011;22890;51.820;8.682;2022-08-05T09:17:45;10.80;;;7.37;;
11024;SDS011;22890;51.820;8.682;2022-08-05T09:20:15;10.10;;;7.40;;
11024;SDS011;22890;51.820;8.682;2022-08-05T09:23:14;11.00;;;8.13;;
11024;SDS011;22890;51.820;8.682;2022-08-05T09:25:46;10.10;;;8.30;;
11024;SDS011;22890;51.820;8.682;2022-08-05T09:28:30;11.53;;;8.17;;
11024;SDS011;22890;51.820;8.682;2022-08-05T09:33:54;11.63;;;7.90;;
11024;SDS011;22890;51.820;8.682;2022-08-05T09:39:24;10.23;;;7.63;;
11024;SDS011;22890;51.820;8.682;2022-08-05T09:42:10;7.97;;;7.17;;
11024;SDS011;22890;51.820;8.682;2022-08-05T09:44:53;9.37;;;6.20;;
11024;SDS011;22890;51.820;8.682;2022-08-05T09:47:23;8.20;;;6.40;;
11024;SDS011;22890;51.820;8.682;2022-08-05T09:50:11;10.43;;;6.23;;
11024;SDS011;22890;51.820;8.682;2022-08-05T09:52:43;8.27;;;5.87;;
11024;SDS011;22890;51.820;8.682;2022-08-05T09:55:10;11.97;;;6.47;;
11024;SDS011;22890;51.820;8.682;2022-08-05T09:57:57;10.97;;;5.83;;
11024;SDS011;22890;51.820;8.682;2022-08-05T10:00:25;7.13;;;5.97;;
11024;SDS011;22890;51.820;8.682;2022-08-05T10:02:56;8.27;;;5.40;;
11024;SDS011;22890;51.820;8.682;2022-08-05T10:05:25;9.80;;;6.00;;
11024;SDS011;22890;51.820;8.682;2022-08-05T10:07:54;8.40;;;5.50;;
11024;SDS011;22890;51.820;8.682;2022-08-05T10:13:33;8.73;;;6.13;;
11024;SDS011;22890;51.820;8.682;2022-08-05T10:19:17;7.40;;;6.20;;
11024;SDS011;22890;51.820;8.682;2022-08-05T10:21:49;9.23;;;6.40;;
11024;SDS011;22890;51.820;8.682;2022-08-05T10:24:19;5.73;;;5.23;;
11024;SDS011;22890;51.820;8.682;2022-08-05T10:26:52;6.80;;;5.27;;
11024;SDS011;22890;51.820;8.682;2022-08-05T10:29:25;5.50;;;4.37;;
11024;SDS011;22890;51.820;8.682;2022-08-05T10:32:14;6.90;;;4.03;;
11024;SDS011;22890;51.820;8.682;2022-08-05T10:35:01;5.60;;;4.20;;
11024;SDS011;22890;51.820;8.682;2022-08-05T10:37:29;5.53;;;3.80;;
11024;SDS011;22890;51.820;8.682;2022-08-05T10:40:31;4.27;;;3.50;;
11024;SDS011;22890;51.820;8.682;2022-08-05T10:43:07;4.67;;;3.70;;
11024;SDS011;22890;51.820;8.682;2022-08-05T10:45:42;3.77;;;2.97;;
11024;SDS011;22890;51.820;8.682;2022-08-05T10:51:23;6.47;;;3.80;;
11024;SDS011;22890;51.820;8.682;2022-08-05T10:53:55;7.20;;;3.67;;
11024;SDS011;22890;51.820;8.682;2022-08-05T10:56:27;4.50;;;3.57;;
11024;SDS011;22890;51.820;8.682;2022-08-05T11:01:45;5.13;;;4.23;;
11024;SDS011;22890;51.820;8.682;2022-08-05T11:04:29;6.70;;;4.90;;
11024;SDS011;22890;51.820;8.682;2022-08-05T11:09:46;6.07;;;4.53;;
11024;SDS011;22890;51.820;8.682;2022-08-05T11:15:21;5.70;;;5.00;;
11024;SDS011;22890;51.820;8.682;2022-08-05T11:18:27;8.23;;;5.07;;
11024;SDS011;22890;51.820;8.682;2022-08-05T11:20:59;5.30;;;3.60;;
11024;SDS011;22890;51.820;8.682;2022-08-05T11:26:38;5.50;;;3.20;;
11024;SDS011;22890;51.820;8.682;2022-08-05T11:29:08;4.27;;;2.93;;
11024;SDS011;22890;51.820;8.682;2022-08-05T11:32:27;2.93;;;2.60;;
11024;SDS011;22890;51.820;8.682;2022-08-05T11:34:55;3.37;;;2.60;;
11024;SDS011;22890;51.820;8.682;2022-08-05T11:49:34;5.37;;;4.20;;
11024;SDS011;22890;51.820;8.682;2022-08-05T11:52:01;5.93;;;3.80;;
11024;SDS011;22890;51.820;8.682;2022-08-05T11:54:37;4.70;;;3.90;;
11024;SDS011;22890;51.820;8.682;2022-08-05T11:57:06;6.07;;;3.80;;
11024;SDS011;22890;51.820;8.682;2022-08-05T11:59:52;5.80;;;3.20;;
11024;SDS011;22890;51.820;8.682;2022-08-05T12:02:28;4.80;;;4.13;;
11024;SDS011;22890;51.820;8.682;2022-08-05T12:05:02;5.97;;;3.80;;
11024;SDS011;22890;51.820;8.682;2022-08-05T12:07:33;5.90;;;3.73;;
11024;SDS011;22890;51.820;8.682;2022-08-05T12:10:23;5.07;;;4.03;;
11024;SDS011;22890;51.820;8.682;2022-08-05T12:13:11;6.13;;;3.17;;
11024;SDS011;22890;51.820;8.682;2022-08-05T12:15:43;3.87;;;2.87;;
11024;SDS011;22890;51.820;8.682;2022-08-05T12:18:18;4.23;;;2.80;;
11024;SDS011;22890;51.820;8.682;2022-08-05T12:20:49;4.00;;;2.60;;
11024;SDS011;22890;51.820;8.682;2022-08-05T12:23:15;5.20;;;2.53;;
11024;SDS011;22890;51.820;8.682;2022-08-05T12:25:51;3.97;;;2.73;;
11024;SDS011;22890;51.820;8.682;2022-08-05T12:28:29;7.03;;;2.63;;
11024;SDS011;22890;51.820;8.682;2022-08-05T12:31:02;6.63;;;2.20;;
11024;SDS011;22890;51.820;8.682;2022-08-05T12:33:29;3.00;;;2.33;;
11024;SDS011;22890;51.820;8.682;2022-08-05T12:36:02;3.53;;;2.47;;
11024;SDS011;22890;51.820;8.682;2022-08-05T12:38:35;3.93;;;2.63;;
11024;SDS011;22890;51.820;8.682;2022-08-05T12:41:08;3.00;;;1.90;;
11024;SDS011;22890;51.820;8.682;2022-08-05T12:43:51;2.80;;;2.20;;
11024;SDS011;22890;51.820;8.682;2022-08-05T12:46:27;3.73;;;2.03;;
11024;SDS011;22890;51.820;8.682;2022-08-05T12:49:00;2.23;;;1.70;;
11024;SDS011;22890;51.820;8.682;2022-08-05T12:51:42;2.73;;;1.50;;
11024;SDS011;22890;51.820;8.682;2022-08-05T12:54:33;4.53;;;2.03;;
11024;SDS011;22890;51.820;8.682;2022-08-05T12:57:02;3.50;;;1.97;;
11024;SDS011;22890;51.820;8.682;2022-08-05T12:59:45;4.07;;;1.90;;
11024;SDS011;22890;51.820;8.682;2022-08-05T13:02:36;2.30;;;1.80;;
11024;SDS011;22890;51.820;8.682;2022-08-05T13:05:06;3.00;;;2.10;;
11024;SDS011;22890;51.820;8.682;2022-08-05T13:07:38;4.47;;;2.13;;
11024;SDS011;22890;51.820;8.682;2022-08-05T13:10:25;3.93;;;2.33;;
11024;SDS011;22890;51.820;8.682;2022-08-05T13:12:54;4.37;;;2.20;;
11024;SDS011;22890;51.820;8.682;2022-08-05T13:15:29;3.30;;;2.10;;
11024;SDS011;22890;51.820;8.682;2022-08-05T13:18:15;3.80;;;2.10;;
11024;SDS011;22890;51.820;8.682;2022-08-05T13:20:45;4.07;;;2.10;;
11024;SDS011;22890;51.820;8.682;2022-08-05T13:23:14;2.70;;;2.47;;
11024;SDS011;22890;51.820;8.682;2022-08-05T13:25:47;6.10;;;2.23;;
11024;SDS011;22890;51.820;8.682;2022-08-05T13:28:25;4.00;;;1.70;;
11024;SDS011;22890;51.820;8.682;2022-08-05T13:30:52;6.50;;;1.97;;
11024;SDS011;22890;51.820;8.682;2022-08-05T13:33:19;3.23;;;2.27;;
11024;SDS011;22890;51.820;8.682;2022-08-05T13:36:06;2.87;;;1.90;;
11024;SDS011;22890;51.820;8.682;2022-08-05T13:38:34;5.00;;;1.93;;
11024;SDS011;22890;51.820;8.682;2022-08-05T13:41:08;3.00;;;1.93;;
11024;SDS011;22890;51.820;8.682;2022-08-05T13:43:38;4.33;;;2.40;;
11024;SDS011;22890;51.820;8.682;2022-08-05T13:46:20;4.67;;;2.37;;
11024;SDS011;22890;51.820;8.682;2022-08-05T13:49:08;5.43;;;2.93;;
11024;SDS011;22890;51.820;8.682;2022-08-05T13:51:36;5.20;;;2.53;;
11024;SDS011;22890;51.820;8.682;2022-08-05T13:54:07;4.80;;;3.23;;
11024;SDS011;22890;51.820;8.682;2022-08-05T13:56:38;4.17;;;3.13;;
11024;SDS011;22890;51.820;8.682;2022-08-05T13:59:20;4.37;;;2.73;;
11024;SDS011;22890;51.820;8.682;2022-08-05T14:01:50;3.13;;;2.83;;
11024;SDS011;22890;51.820;8.682;2022-08-05T14:04:29;3.87;;;3.50;;
11024;SDS011;22890;51.820;8.682;2022-08-05T14:07:20;5.57;;;2.83;;
11024;SDS011;22890;51.820;8.682;2022-08-05T14:16:48;4.13;;;2.60;;
11024;SDS011;22890;51.820;8.682;2022-08-05T14:19:20;3.70;;;2.97;;
11024;SDS011;22890;51.820;8.682;2022-08-05T14:21:48;4.03;;;2.40;;
11024;SDS011;22890;51.820;8.682;2022-08-05T14:24:35;4.33;;;2.50;;
11024;SDS011;22890;51.820;8.682;2022-08-05T14:27:05;3.47;;;2.40;;
11024;SDS011;22890;51.820;8.682;2022-08-05T14:29:43;2.87;;;2.67;;
11024;SDS011;22890;51.820;8.682;2022-08-05T14:32:17;3.83;;;2.83;;
11024;SDS011;22890;51.820;8.682;2022-08-05T14:34:53;3.57;;;2.30;;
11024;SDS011;22890;51.820;8.682;2022-08-05T14:37:22;2.67;;;2.47;;
11024;SDS011;22890;51.820;8.682;2022-08-05T14:40:09;2.77;;;2.50;;
11024;SDS011;22890;51.820;8.682;2022-08-05T14:42:41;4.77;;;2.30;;
11024;SDS011;22890;51.820;8.682;2022-08-05T14:45:08;5.00;;;3.40;;
11024;SDS011;22890;51.820;8.682;2022-08-05T14:47:35;4.57;;;2.90;;
11024;SDS011;22890;51.820;8.682;2022-08-05T14:50:22;2.70;;;2.33;;
11024;SDS011;22890;51.820;8.682;2022-08-05T14:52:50;4.03;;;2.60;;
11024;SDS011;22890;51.820;8.682;2022-08-05T14:55:23;4.13;;;2.80;;
11024;SDS011;22890;51.820;8.682;2022-08-05T14:58:03;4.97;;;2.83;;
11024;SDS011;22890;51.820;8.682;2022-08-05T15:00:37;2.50;;;2.30;;
11024;SDS011;22890;51.820;8.682;2022-08-05T15:03:24;2.87;;;2.57;;
11024;SDS011;22890;51.820;8.682;2022-08-05T15:05:51;6.23;;;2.43;;
11024;SDS011;22890;51.820;8.682;2022-08-05T15:08:37;2.43;;;2.13;;
11024;SDS011;22890;51.820;8.682;2022-08-05T15:11:24;3.73;;;2.20;;
11024;SDS011;22890;51.820;8.682;2022-08-05T15:14:11;2.93;;;2.53;;
11024;SDS011;22890;51.820;8.682;2022-08-05T15:16:57;3.20;;;2.33;;
11024;SDS011;22890;51.820;8.682;2022-08-05T15:19:25;3.17;;;2.30;;
11024;SDS011;22890;51.820;8.682;2022-08-05T15:21:52;2.47;;;2.27;;
11024;SDS011;22890;51.820;8.682;2022-08-05T15:24:25;7.57;;;2.40;;
11024;SDS011;22890;51.820;8.682;2022-08-05T15:26:52;3.17;;;2.40;;
11024;SDS011;22890;51.820;8.682;2022-08-05T15:29:21;2.87;;;2.20;;
11024;SDS011;22890;51.820;8.682;2022-08-05T15:31:47;3.43;;;2.37;;
11024;SDS011;22890;51.820;8.682;2022-08-05T15:34:18;3.33;;;2.30;;
11024;SDS011;22890;51.820;8.682;2022-08-05T15:36:59;2.60;;;2.20;;
11024;SDS011;22890;51.820;8.682;2022-08-05T15:39:32;5.67;;;2.30;;
11024;SDS011;22890;51.820;8.682;2022-08-05T15:42:19;3.77;;;2.30;;
11024;SDS011;22890;51.820;8.682;2022-08-05T15:45:06;3.00;;;2.40;;
11024;SDS011;22890;51.820;8.682;2022-08-05T15:47:35;9.43;;;2.83;;
11024;SDS011;22890;51.820;8.682;2022-08-05T15:50:04;2.87;;;2.17;;
11024;SDS011;22890;51.820;8.682;2022-08-05T15:52:32;3.83;;;2.43;;
11024;SDS011;22890;51.820;8.682;2022-08-05T15:55:19;4.33;;;2.53;;
11024;SDS011;22890;51.820;8.682;2022-08-05T15:57:50;2.43;;;2.20;;
11024;SDS011;22890;51.820;8.682;2022-08-05T16:00:17;2.83;;;2.53;;
11024;SDS011;22890;51.820;8.682;2022-08-05T16:03:04;3.23;;;2.30;;
11024;SDS011;22890;51.820;8.682;2022-08-05T16:05:32;4.33;;;2.20;;
11024;SDS011;22890;51.820;8.682;2022-08-05T16:07:59;2.70;;;2.00;;
11024;SDS011;22890;51.820;8.682;2022-08-05T16:10:26;2.40;;;2.20;;
11024;SDS011;22890;51.820;8.682;2022-08-05T16:12:54;4.53;;;2.23;;
11024;SDS011;22890;51.820;8.682;2022-08-05T16:15:21;3.30;;;2.10;;
11024;SDS011;22890;51.820;8.682;2022-08-05T16:17:48;2.53;;;2.07;;
11024;SDS011;22890;51.820;8.682;2022-08-05T16:20:23;3.13;;;2.00;;
11024;SDS011;22890;51.820;8.682;2022-08-05T16:22:50;3.90;;;1.90;;
11024;SDS011;22890;51.820;8.682;2022-08-05T16:25:17;2.57;;;2.03;;
11024;SDS011;22890;51.820;8.682;2022-08-05T16:27:44;2.90;;;2.30;;
11024;SDS011;22890;51.820;8.682;2022-08-05T16:30:27;3.67;;;2.27;;
11024;SDS011;22890;51.820;8.682;2022-08-05T16:32:57;3.77;;;2.10;;
11024;SDS011;22890;51.820;8.682;2022-08-05T16:35:24;4.53;;;2.20;;